aviador You're here:

YBUD Decoded Metar

in
Report Time2017-09-25 16:00:00
UTC Time2017-09-25 16:53:36
Flight Rules vfr VFR
Wind330° at 10 kt
W.Decomp.*RWY 32: 9.8 kt HW 1.7 kt RCW
RWY 25: 1.7 kt HW 9.8 kt RCW
W.Rank330° ranks 26
Current wind is above 330° avg. (7.0)
Visibility9999 m
Phenomena:N/A
Clouds:Scattered 012 Hf
Expected CloudBase > 400 ft AGL from Temp-Dew spread
CeilingNone
Temp20°C
Dew Point19°C (94% RH)
AAT19.6°C
QNH1013 hPa
Raw Report
METAR YBUD 251600Z AUTO 33010KT 9999 // SCT012 20/19 Q1013=

Extra information for YBUD:More info

Social comments